Time;durP1;ratioP1;P1;durP2;ratioP2;P2;SDS_P1;SDS_P2;PMS_P1;PMS_P2;Temp;Humidity;BMP_temperature;BMP_pressure;BME280_temperature;BME280_humidity;BME280_pressure;Samples;Min_cycle;Max_cycle;Signal;HPM_P1;HPM_P2
2023/03/01 00:01:49;;;;;;;;;;;0.00;99.90;;;;;;5053696;28;19916;-49
2023/03/01 00:04:15;;;;;;;;;;;-0.10;99.90;;;;;;5054200;28;19958;-49
2023/03/01 00:06:42;;;;;;;;;;;-0.10;99.90;;;;;;5054055;28;20372;-45
2023/03/01 00:09:08;;;;;;;;;;;-0.20;99.90;;;;;;5053186;28;19988;-46
2023/03/01 00:11:34;;;;;;;;;;;-0.10;99.90;;;;;;5054066;28;20912;-47
2023/03/01 00:14:06;;;;;;;;;;;-0.20;99.90;;;;;;5053221;28;19995;-48
2023/03/01 00:16:41;;;;;;;;;;;-0.10;99.90;;;;;;5054237;28;20162;-50
2023/03/01 00:19:09;;;;;;;;;;;-0.30;99.90;;;;;;5054101;28;19908;-50
2023/03/01 00:21:35;;;;;;;;;;;-0.50;99.90;;;;;;5052954;28;20403;-49
2023/03/01 00:24:01;;;;;;;;;;;-0.60;99.90;;;;;;5053992;28;19969;-49
2023/03/01 00:26:26;;;;;;;;;;;-0.60;99.90;;;;;;5053694;28;19915;-52
2023/03/01 00:28:52;;;;;;;;;;;-0.70;99.90;;;;;;5053002;28;19909;-49
2023/03/01 00:31:19;;;;;;;;;;;-0.70;99.90;;;;;;5053680;28;20372;-49
2023/03/01 00:33:44;;;;;;;;;;;-0.70;99.90;;;;;;5053553;28;20356;-48
2023/03/01 00:36:11;;;;;;;;;;;-0.70;99.90;;;;;;5052822;28;19915;-49
2023/03/01 00:38:37;;;;;;;;;;;-0.70;99.90;;;;;;5053717;28;20062;-48
2023/03/01 00:41:07;;;;;;;;;;;-0.70;99.90;;;;;;5053415;28;19917;-49
2023/03/01 00:43:36;;;;;;;;;;;-0.80;99.90;;;;;;5052482;28;19916;-48
2023/03/01 00:46:03;;;;;;;;;;;-0.70;99.90;;;;;;5053327;28;19919;-48
2023/03/01 00:48:28;;;;;;;;;;;-0.70;99.90;;;;;;5053339;28;19913;-49
2023/03/01 00:50:54;;;;;;;;;;;-0.70;99.90;;;;;;5052482;28;19996;-51
2023/03/01 00:53:19;;;;;;;;;;;-0.70;99.90;;;;;;5053052;28;19923;-51
2023/03/01 00:55:45;;;;;;;;;;;-0.70;99.90;;;;;;5053190;28;19986;-52
2023/03/01 00:58:10;;;;;;;;;;;-0.70;99.90;;;;;;5052201;28;19928;-48
2023/03/01 01:00:36;;;;;;;;;;;-0.70;99.90;;;;;;5053095;28;19955;-49
2023/03/01 01:03:01;;;;;;;;;;;-0.70;99.90;;;;;;5052548;28;19912;-53
2023/03/01 01:05:27;;;;;;;;;;;-0.70;99.90;;;;;;5052890;28;19963;-48
2023/03/01 01:07:52;;;;;;;;;;;-0.70;99.90;;;;;;5053196;28;19908;-51
2023/03/01 01:10:17;;;;;;;;;;;-0.70;99.90;;;;;;5052152;28;19909;-52
2023/03/01 01:12:46;;;;;;;;;;;-0.70;99.90;;;;;;5053015;28;19961;-52
2023/03/01 01:15:13;;;;;;;;;;;-0.60;99.90;;;;;;5052895;28;19913;-47
2023/03/01 01:17:39;;;;;;;;;;;-0.70;99.90;;;;;;5055490;28;19919;-51
2023/03/01 01:20:05;;;;;;;;;;;-0.60;99.90;;;;;;5052626;28;19909;-47
2023/03/01 01:22:31;;;;;;;;;;;-0.70;99.90;;;;;;5052772;28;19913;-51
2023/03/01 01:24:56;;;;;;;;;;;-0.60;99.90;;;;;;5052095;28;19920;-49
2023/03/01 01:27:22;;;;;;;;;;;-0.60;99.90;;;;;;5052757;28;19909;-54
2023/03/01 01:29:47;;;;;;;;;;;-0.70;99.90;;;;;;5052749;28;19999;-48
2023/03/01 01:32:13;;;;;;;;;;;-0.60;99.90;;;;;;5052163;28;19935;-51
2023/03/01 01:34:38;;;;;;;;;;;-0.70;99.90;;;;;;5052876;28;20006;-49
2023/03/01 01:37:07;;;;;;;;;;;-0.70;99.90;;;;;;5052830;28;19917;-50
2023/03/01 01:39:33;;;;;;;;;;;-0.70;99.90;;;;;;5051990;28;19909;-51
2023/03/01 01:41:59;;;;;;;;;;;-0.70;99.90;;;;;;5052679;28;19916;-47
2023/03/01 01:44:26;;;;;;;;;;;-0.70;99.90;;;;;;5053368;28;19939;-51
2023/03/01 01:47:00;;;;;;;;;;;-0.80;99.90;;;;;;5071783;28;20000;-49
2023/03/01 01:49:37;;;;;;;;;;;-0.80;99.90;;;;;;5072545;28;19916;-49
2023/03/01 01:52:21;;;;;;;;;;;-0.80;99.90;;;;;;5072467;28;19908;-52
2023/03/01 01:54:57;;;;;;;;;;;-0.80;99.90;;;;;;5072106;28;19916;-50
2023/03/01 01:57:29;;;;;;;;;;;-0.80;99.90;;;;;;5075332;28;20327;-50
2023/03/01 01:59:56;;;;;;;;;;;-0.90;99.90;;;;;;5075826;28;20003;-52
2023/03/01 02:02:22;;;;;;;;;;;-0.90;99.90;;;;;;5076852;28;20092;-51
2023/03/01 02:04:49;;;;;;;;;;;-0.90;99.90;;;;;;5076490;28;20371;-50
2023/03/01 02:07:16;;;;;;;;;;;-0.90;99.90;;;;;;5075860;28;19909;-52
2023/03/01 02:09:45;;;;;;;;;;;-0.90;99.90;;;;;;5076461;28;20315;-50
2023/03/01 02:12:10;;;;;;;;;;;-1.00;99.90;;;;;;5076216;28;19908;-52
2023/03/01 02:14:36;;;;;;;;;;;-1.00;99.90;;;;;;5075199;28;19966;-54
2023/03/01 02:17:01;;;;;;;;;;;-1.00;99.90;;;;;;5076202;28;19915;-49
2023/03/01 02:19:41;;;;;;;;;;;-1.00;99.90;;;;;;5076278;28;19908;-49
2023/03/01 02:22:14;;;;;;;;;;;-1.10;99.90;;;;;;5075451;28;19920;-51
2023/03/01 02:24:43;;;;;;;;;;;-1.10;99.90;;;;;;5076096;28;19908;-50
2023/03/01 02:27:09;;;;;;;;;;;-1.00;99.90;;;;;;5067373;28;20280;-53
2023/03/01 02:29:35;;;;;;;;;;;-1.10;99.90;;;;;;5055278;28;20279;-51
2023/03/01 02:32:02;;;;;;;;;;;-1.10;99.90;;;;;;5055971;28;19909;-47
2023/03/01 02:34:28;;;;;;;;;;;-1.00;99.90;;;;;;5055522;28;19913;-51
2023/03/01 02:36:57;;;;;;;;;;;-1.10;99.90;;;;;;5055775;28;20356;-48
2023/03/01 02:39:27;;;;;;;;;;;-1.00;99.90;;;;;;5055820;28;19940;-49
2023/03/01 02:41:53;;;;;;;;;;;-1.10;99.90;;;;;;5054979;28;19917;-49
2023/03/01 02:44:20;;;;;;;;;;;-1.10;99.90;;;;;;5055819;28;20003;-52
2023/03/01 02:46:47;;;;;;;;;;;-1.10;99.90;;;;;;5075372;28;19954;-49
2023/03/01 02:49:23;;;;;;;;;;;-1.10;99.90;;;;;;5074941;28;19908;-53
2023/03/01 02:52:07;;;;;;;;;;;-1.20;99.90;;;;;;5075572;28;19908;-50
2023/03/01 02:54:45;;;;;;;;;;;-1.10;99.90;;;;;;5075529;28;19966;-49
2023/03/01 02:57:11;;;;;;;;;;;-1.10;99.90;;;;;;5074751;28;19909;-53
2023/03/01 02:59:40;;;;;;;;;;;-1.20;99.90;;;;;;5075404;28;19973;-50
2023/03/01 03:02:07;;;;;;;;;;;-1.20;99.90;;;;;;5073508;28;19931;-51
2023/03/01 03:04:32;;;;;;;;;;;-1.20;99.90;;;;;;5065588;28;19912;-50
2023/03/01 03:06:58;;;;;;;;;;;-1.30;99.90;;;;;;5070824;28;19923;-50
2023/03/01 03:09:23;;;;;;;;;;;-1.40;99.90;;;;;;5075384;28;19908;-51
2023/03/01 03:11:49;;;;;;;;;;;-1.50;99.90;;;;;;5074592;28;20285;-52
2023/03/01 03:14:15;;;;;;;;;;;-1.50;99.90;;;;;;5075165;28;19916;-51
2023/03/01 03:16:42;;;;;;;;;;;-1.50;99.90;;;;;;5074444;28;19908;-55
2023/03/01 03:19:08;;;;;;;;;;;-1.50;99.90;;;;;;5075122;28;19943;-52
2023/03/01 03:21:34;;;;;;;;;;;-1.50;99.90;;;;;;5075081;28;19960;-51
2023/03/01 03:23:59;;;;;;;;;;;-1.50;99.90;;;;;;5074213;28;19912;-50
2023/03/01 03:26:25;;;;;;;;;;;-1.50;99.90;;;;;;5075040;28;20003;-50
2023/03/01 03:28:51;;;;;;;;;;;-1.50;99.90;;;;;;5075042;28;19908;-51
2023/03/01 03:31:16;;;;;;;;;;;-1.50;99.90;;;;;;5074161;28;20366;-51
2023/03/01 03:33:42;;;;;;;;;;;-1.50;99.90;;;;;;5074865;28;20274;-49
2023/03/01 03:36:12;;;;;;;;;;;-1.50;99.90;;;;;;5074440;28;20447;-52
2023/03/01 03:38:39;;;;;;;;;;;-1.50;99.90;;;;;;5073850;28;20376;-50
2023/03/01 03:41:07;;;;;;;;;;;-1.50;99.90;;;;;;5074506;28;19921;-53
2023/03/01 03:43:33;;;;;;;;;;;-1.50;99.90;;;;;;5074709;28;19909;-53
2023/03/01 03:45:59;;;;;;;;;;;-1.50;99.90;;;;;;5073923;28;19919;-47
2023/03/01 03:48:25;;;;;;;;;;;-1.50;99.90;;;;;;5074763;28;20274;-49
2023/03/01 03:50:52;;;;;;;;;;;-1.60;99.90;;;;;;5074466;28;19958;-52
2023/03/01 03:53:17;;;;;;;;;;;-1.60;99.90;;;;;;5073884;28;19912;-52
2023/03/01 03:55:44;;;;;;;;;;;-1.60;99.90;;;;;;5074480;28;19908;-52
2023/03/01 03:58:10;;;;;;;;;;;-1.50;99.90;;;;;;5074249;28;19952;-50
2023/03/01 04:00:40;;;;;;;;;;;-1.50;99.90;;;;;;5073500;28;19923;-50
2023/03/01 04:03:06;;;;;;;;;;;-1.60;99.90;;;;;;5074236;28;19952;-52
2023/03/01 04:05:32;;;;;;;;;;;-1.60;99.90;;;;;;5067194;28;19961;-51
2023/03/01 04:08:06;;;;;;;;;;;-1.60;99.90;;;;;;5054094;28;19974;-49
2023/03/01 04:10:33;;;;;;;;;;;-1.60;99.90;;;;;;5054216;28;19909;-49
2023/03/01 04:12:59;;;;;;;;;;;-1.60;99.90;;;;;;5053705;28;20300;-52
2023/03/01 04:15:25;;;;;;;;;;;-1.60;99.90;;;;;;5058125;28;19920;-51
2023/03/01 04:17:52;;;;;;;;;;;-1.60;99.90;;;;;;5053907;28;19995;-51
2023/03/01 04:20:25;;;;;;;;;;;-1.60;99.90;;;;;;5052551;28;20035;-51
2023/03/01 04:23:13;;;;;;;;;;;-1.60;99.90;;;;;;5053863;28;19920;-50
2023/03/01 04:25:57;;;;;;;;;;;-1.70;99.90;;;;;;5043520;28;20363;-50
2023/03/01 04:28:24;;;;;;;;;;;-1.60;99.90;;;;;;5053146;28;19909;-50
2023/03/01 04:30:51;;;;;;;;;;;-1.70;99.90;;;;;;5053617;28;19915;-50
2023/03/01 04:33:16;;;;;;;;;;;-1.70;99.90;;;;;;5054091;28;20010;-52
2023/03/01 04:35:42;;;;;;;;;;;-1.70;99.90;;;;;;5052887;28;20364;-53
2023/03/01 04:38:08;;;;;;;;;;;-1.70;99.90;;;;;;5053623;28;19912;-51
2023/03/01 04:40:33;;;;;;;;;;;-1.80;99.90;;;;;;5053762;28;20008;-52
2023/03/01 04:42:59;;;;;;;;;;;-1.70;99.90;;;;;;5052618;28;20318;-52
2023/03/01 04:45:24;;;;;;;;;;;-1.80;99.90;;;;;;5053533;28;19951;-49
2023/03/01 04:47:51;;;;;;;;;;;-1.80;99.90;;;;;;5053280;28;20300;-50
2023/03/01 04:50:20;;;;;;;;;;;-1.80;99.90;;;;;;5052728;28;19916;-50
2023/03/01 04:52:46;;;;;;;;;;;-1.80;99.90;;;;;;5053441;28;20003;-51
2023/03/01 04:55:12;;;;;;;;;;;-1.80;99.90;;;;;;5052434;28;19946;-53
2023/03/01 04:57:37;;;;;;;;;;;-1.80;99.90;;;;;;5053095;28;19913;-51
2023/03/01 05:00:19;;;;;;;;;;;-1.80;99.90;;;;;;5053118;28;19959;-53
2023/03/01 05:02:55;;;;;;;;;;;-1.70;99.90;;;;;;5052470;28;19964;-51
2023/03/01 05:05:25;;;;;;;;;;;-1.80;99.90;;;;;;5053242;28;20000;-54
2023/03/01 05:07:54;;;;;;;;;;;-1.80;99.90;;;;;;5053000;28;19917;-52
2023/03/01 05:10:20;;;;;;;;;;;-1.80;99.90;;;;;;5052420;28;19909;-52
2023/03/01 05:12:46;;;;;;;;;;;-1.80;99.90;;;;;;5052924;28;19909;-49
2023/03/01 05:15:12;;;;;;;;;;;-1.80;99.90;;;;;;5052734;28;19924;-51
2023/03/01 05:17:37;;;;;;;;;;;-1.90;99.90;;;;;;5052076;28;19909;-52
2023/03/01 05:20:08;;;;;;;;;;;-1.90;99.90;;;;;;5052748;28;20364;-52
2023/03/01 05:22:33;;;;;;;;;;;-1.90;99.90;;;;;;5052920;28;20017;-52
2023/03/01 05:24:59;;;;;;;;;;;-1.90;99.90;;;;;;5052186;28;20395;-53
2023/03/01 05:27:24;;;;;;;;;;;-1.90;99.90;;;;;;5052938;28;19909;-50
2023/03/01 05:29:50;;;;;;;;;;;-1.90;99.90;;;;;;5052587;28;19995;-51
2023/03/01 05:32:16;;;;;;;;;;;-1.90;99.90;;;;;;5051223;28;20253;-52
2023/03/01 05:34:41;;;;;;;;;;;-1.90;99.90;;;;;;5052836;28;19908;-51
2023/03/01 05:37:08;;;;;;;;;;;-2.00;99.90;;;;;;5052625;28;19970;-53
2023/03/01 05:39:33;;;;;;;;;;;-1.90;99.90;;;;;;5052080;28;19932;-53
2023/03/01 05:42:00;;;;;;;;;;;-2.00;99.90;;;;;;5052465;28;20395;-53
2023/03/01 05:44:29;;;;;;;;;;;-1.90;99.90;;;;;;5062333;28;20140;-57
2023/03/01 05:46:54;;;;;;;;;;;-1.90;99.90;;;;;;5072535;28;19909;-54
2023/03/01 05:49:20;;;;;;;;;;;-1.90;99.90;;;;;;5072675;28;20275;-51
2023/03/01 05:51:48;;;;;;;;;;;-1.90;99.90;;;;;;5071737;28;19909;-53
2023/03/01 05:54:14;;;;;;;;;;;-2.00;99.90;;;;;;5072720;28;19912;-52
2023/03/01 05:56:40;;;;;;;;;;;-1.90;99.90;;;;;;5072537;28;19908;-53
2023/03/01 05:59:06;;;;;;;;;;;-2.00;99.90;;;;;;5071562;28;19921;-52
2023/03/01 06:01:31;;;;;;;;;;;-2.00;99.90;;;;;;5083629;28;19927;-53
2023/03/01 06:03:57;;;;;;;;;;;-2.10;99.90;;;;;;5092677;28;20367;-53
2023/03/01 06:06:23;;;;;;;;;;;-2.00;99.90;;;;;;5091779;28;20270;-52
2023/03/01 06:08:49;;;;;;;;;;;-2.10;99.90;;;;;;5092406;28;19916;-53
2023/03/01 06:11:15;;;;;;;;;;;-2.10;99.90;;;;;;5092449;28;19908;-55
2023/03/01 06:13:41;;;;;;;;;;;-2.10;99.90;;;;;;5082637;28;20003;-52
2023/03/01 06:16:07;;;;;;;;;;;-2.10;99.90;;;;;;5052092;28;20426;-54
2023/03/01 06:18:33;;;;;;;;;;;-2.10;99.90;;;;;;5052151;28;19909;-53
2023/03/01 06:20:58;;;;;;;;;;;-2.10;99.90;;;;;;5051409;28;19916;-58
2023/03/01 06:23:24;;;;;;;;;;;-2.10;99.90;;;;;;5052028;28;19917;-54
2023/03/01 06:25:49;;;;;;;;;;;-2.10;99.90;;;;;;5052127;28;19909;-54
2023/03/01 06:28:15;;;;;;;;;;;-2.10;99.90;;;;;;5058805;28;20064;-53
2023/03/01 06:30:40;;;;;;;;;;;-2.10;99.90;;;;;;5066195;28;19912;-57
2023/03/01 06:33:06;;;;;;;;;;;-2.10;99.90;;;;;;5065805;28;19916;-54
2023/03/01 06:35:31;;;;;;;;;;;-2.10;99.90;;;;;;5056372;28;19912;-57
2023/03/01 06:37:58;;;;;;;;;;;-2.10;99.90;;;;;;5051939;28;19909;-56
2023/03/01 06:40:23;;;;;;;;;;;-2.10;99.90;;;;;;5052050;28;20050;-57
2023/03/01 06:42:49;;;;;;;;;;;-2.10;99.90;;;;;;5053351;28;20416;-60
2023/03/01 06:45:15;;;;;;;;;;;-2.10;99.90;;;;;;5072220;28;19920;-59
2023/03/01 06:47:41;;;;;;;;;;;-2.10;99.90;;;;;;5075452;28;20367;-59
2023/03/01 06:50:06;;;;;;;;;;;-2.00;99.90;;;;;;5055638;28;19916;-57
2023/03/01 06:52:32;;;;;;;;;;;-2.00;99.90;;;;;;5060675;28;19948;-58
2023/03/01 06:54:57;;;;;;;;;;;-2.00;99.90;;;;;;5054653;28;19912;-59
2023/03/01 06:57:23;;;;;;;;;;;-1.90;99.90;;;;;;5055344;28;19916;-60
2023/03/01 06:59:48;;;;;;;;;;;-1.90;99.90;;;;;;5055302;28;20331;-58
2023/03/01 07:02:15;;;;;;;;;;;-1.90;99.90;;;;;;5054753;28;20473;-58
2023/03/01 07:04:40;;;;;;;;;;;-1.80;99.90;;;;;;5061146;28;20007;-57
2023/03/01 07:07:06;;;;;;;;;;;-1.80;99.90;;;;;;5075327;28;19991;-57
2023/03/01 07:09:31;;;;;;;;;;;-1.80;99.90;;;;;;5074749;28;19985;-57
2023/03/01 07:11:57;;;;;;;;;;;-1.70;99.90;;;;;;5075154;28;19915;-57
2023/03/01 07:14:26;;;;;;;;;;;-1.70;99.90;;;;;;5075168;28;19908;-60
2023/03/01 07:16:54;;;;;;;;;;;-1.60;99.90;;;;;;5074561;28;19994;-59
2023/03/01 07:19:20;;;;;;;;;;;-1.60;99.90;;;;;;5066214;28;19915;-58
2023/03/01 07:21:46;;;;;;;;;;;-1.50;99.90;;;;;;5068347;28;19921;-57
2023/03/01 07:24:11;;;;;;;;;;;-1.50;99.90;;;;;;5064988;28;20260;-58
2023/03/01 07:26:37;;;;;;;;;;;-1.50;99.90;;;;;;5063655;28;19913;-57
2023/03/01 07:29:03;;;;;;;;;;;-1.40;99.90;;;;;;5054822;28;19919;-53
2023/03/01 07:31:29;;;;;;;;;;;-1.30;99.90;;;;;;5054129;28;19999;-55
2023/03/01 07:33:55;;;;;;;;;;;-1.20;99.90;;;;;;5054594;28;20000;-53
2023/03/01 07:36:20;;;;;;;;;;;-1.20;99.90;;;;;;5054782;28;19963;-54
2023/03/01 07:38:46;;;;;;;;;;;-1.10;99.90;;;;;;5053848;28;19909;-55
2023/03/01 07:41:11;;;;;;;;;;;-1.10;99.90;;;;;;5060203;28;19946;-54
2023/03/01 07:43:37;;;;;;;;;;;-1.00;99.90;;;;;;5074530;28;20280;-54
2023/03/01 07:46:03;;;;;;;;;;;-0.90;99.90;;;;;;5073679;28;19909;-55
2023/03/01 07:48:29;;;;;;;;;;;-0.90;99.90;;;;;;5071013;28;20135;-55
2023/03/01 07:50:54;;;;;;;;;;;-0.80;99.90;;;;;;5063138;28;20004;-55
2023/03/01 07:53:20;;;;;;;;;;;-0.70;99.90;;;;;;5071286;28;20003;-55
2023/03/01 07:55:45;;;;;;;;;;;-0.60;99.90;;;;;;5053864;28;19913;-55
2023/03/01 07:58:11;;;;;;;;;;;-0.50;99.90;;;;;;5054134;28;20375;-54
2023/03/01 08:00:36;;;;;;;;;;;-0.40;99.90;;;;;;5062791;28;19943;-55
2023/03/01 08:03:01;;;;;;;;;;;-0.40;99.90;;;;;;5057443;28;19963;-55
2023/03/01 08:05:28;;;;;;;;;;;-0.30;99.90;;;;;;5056501;28;20015;-55
2023/03/01 08:07:53;;;;;;;;;;;-0.10;99.90;;;;;;5074081;28;19943;-54
2023/03/01 08:10:19;;;;;;;;;;;0.00;99.90;;;;;;5074150;28;20005;-55
2023/03/01 08:12:44;;;;;;;;;;;0.10;99.90;;;;;;5073185;28;19999;-59
2023/03/01 08:15:10;;;;;;;;;;;0.20;99.90;;;;;;5074038;28;19908;-54
2023/03/01 08:17:35;;;;;;;;;;;0.30;99.90;;;;;;5071097;28;20013;-55
2023/03/01 08:20:03;;;;;;;;;;;0.40;99.90;;;;;;5053098;28;19909;-55
2023/03/01 08:22:28;;;;;;;;;;;0.50;99.90;;;;;;5067516;28;19959;-54
2023/03/01 08:24:55;;;;;;;;;;;0.50;99.90;;;;;;5058943;28;19990;-56
2023/03/01 08:27:21;;;;;;;;;;;0.60;99.90;;;;;;5077186;28;19919;-52
2023/03/01 08:29:46;;;;;;;;;;;0.70;99.90;;;;;;5054684;28;19916;-58
2023/03/01 08:32:12;;;;;;;;;;;0.80;99.90;;;;;;5064608;28;20010;-54
2023/03/01 08:34:37;;;;;;;;;;;0.80;99.90;;;;;;5052720;28;19909;-55
2023/03/01 08:37:03;;;;;;;;;;;1.00;99.90;;;;;;5068134;28;19954;-56
2023/03/01 08:39:28;;;;;;;;;;;1.00;99.90;;;;;;5073605;28;20007;-52
2023/03/01 08:41:54;;;;;;;;;;;1.10;99.90;;;;;;5072450;28;19917;-54
2023/03/01 08:44:20;;;;;;;;;;;1.20;99.90;;;;;;5073630;28;19908;-54
2023/03/01 08:46:46;;;;;;;;;;;1.30;99.90;;;;;;5073318;28;19915;-53
2023/03/01 08:49:13;;;;;;;;;;;1.40;99.90;;;;;;5058130;28;20003;-54
2023/03/01 08:51:39;;;;;;;;;;;1.50;99.90;;;;;;5053302;28;19956;-52
2023/03/01 08:54:05;;;;;;;;;;;1.60;99.90;;;;;;5053035;28;20364;-50
2023/03/01 08:56:31;;;;;;;;;;;1.70;99.90;;;;;;5052278;28;19939;-54
2023/03/01 08:58:57;;;;;;;;;;;1.80;99.90;;;;;;5052501;28;19924;-51
2023/03/01 09:01:22;;;;;;;;;;;1.90;99.90;;;;;;5052253;28;20378;-52
2023/03/01 09:03:48;;;;;;;;;;;2.00;99.90;;;;;;5053092;28;19909;-52
2023/03/01 09:06:14;;;;;;;;;;;2.10;99.90;;;;;;5052752;28;19912;-51
2023/03/01 09:08:40;;;;;;;;;;;2.20;99.90;;;;;;5053456;28;20442;-51
2023/03/01 09:11:07;;;;;;;;;;;2.30;99.90;;;;;;5072866;28;19958;-52
2023/03/01 09:13:33;;;;;;;;;;;2.40;99.90;;;;;;5073256;28;19950;-52
2023/03/01 09:16:00;;;;;;;;;;;2.50;99.90;;;;;;5071837;28;19956;-50
2023/03/01 09:18:25;;;;;;;;;;;2.60;99.90;;;;;;5073016;28;19909;-52
2023/03/01 09:20:51;;;;;;;;;;;2.80;99.90;;;;;;5072709;28;19919;-50
2023/03/01 09:23:16;;;;;;;;;;;2.90;99.90;;;;;;5072021;28;19912;-49
2023/03/01 09:25:42;;;;;;;;;;;2.90;99.90;;;;;;5072761;28;19912;-52
2023/03/01 09:28:07;;;;;;;;;;;3.00;99.90;;;;;;5072762;28;19954;-51
2023/03/01 09:30:33;;;;;;;;;;;3.20;99.90;;;;;;5074663;28;19913;-53
2023/03/01 09:32:58;;;;;;;;;;;3.30;99.90;;;;;;5062009;28;20375;-52
2023/03/01 09:35:24;;;;;;;;;;;3.40;99.90;;;;;;5071925;28;19912;-52
2023/03/01 09:37:49;;;;;;;;;;;3.50;99.90;;;;;;5077640;28;19920;-48
2023/03/01 09:40:25;;;;;;;;;;;3.60;99.90;;;;;;5088949;28;19909;-47
2023/03/01 09:42:53;;;;;;;;;;;3.80;99.90;;;;;;5072634;28;20015;-48
2023/03/01 09:45:25;;;;;;;;;;;3.90;99.90;;;;;;5071957;28;19931;-51
2023/03/01 09:47:50;;;;;;;;;;;4.10;99.90;;;;;;5072956;28;19958;-48
2023/03/01 09:50:19;;;;;;;;;;;4.10;99.90;;;;;;5072801;28;19912;-50
2023/03/01 09:52:45;;;;;;;;;;;4.30;99.90;;;;;;5065490;28;20066;-51
2023/03/01 09:55:12;;;;;;;;;;;4.40;99.90;;;;;;5052541;28;20419;-47
2023/03/01 09:57:52;;;;;;;;;;;4.50;99.90;;;;;;5051584;28;19912;-48
2023/03/01 10:00:34;;;;;;;;;;;4.60;99.90;;;;;;5052387;28;20339;-49
2023/03/01 10:03:09;;;;;;;;;;;4.80;99.90;;;;;;5055313;28;20016;-50
2023/03/01 10:05:41;;;;;;;;;;;4.80;99.90;;;;;;5071728;28;19962;-51
2023/03/01 10:08:25;;;;;;;;;;;4.90;99.90;;;;;;5080146;28;19912;-50
2023/03/01 10:10:51;;;;;;;;;;;5.00;99.90;;;;;;5052224;28;19974;-52
2023/03/01 10:13:23;;;;;;;;;;;5.10;99.90;;;;;;5051550;28;19909;-50
2023/03/01 10:15:54;;;;;;;;;;;5.20;99.90;;;;;;5052269;28;19909;-46
2023/03/01 10:18:25;;;;;;;;;;;5.30;99.90;;;;;;5055353;28;19913;-47
2023/03/01 10:20:59;;;;;;;;;;;5.50;99.90;;;;;;5055442;28;20008;-50
2023/03/01 10:23:27;;;;;;;;;;;5.50;99.90;;;;;;5056231;28;19913;-48
2023/03/01 10:25:53;;;;;;;;;;;5.60;99.90;;;;;;5055257;28;19971;-52
2023/03/01 10:28:24;;;;;;;;;;;5.70;99.90;;;;;;5056172;28;20355;-48
2023/03/01 10:30:50;;;;;;;;;;;5.80;99.90;;;;;;5075021;28;19908;-51
2023/03/01 10:33:26;;;;;;;;;;;5.80;99.00;;;;;;5075151;28;19962;-50
2023/03/01 10:35:52;;;;;;;;;;;5.90;95.70;;;;;;5075937;28;20371;-48
2023/03/01 10:38:20;;;;;;;;;;;6.00;97.60;;;;;;5075891;28;19961;-45
2023/03/01 10:40:54;;;;;;;;;;;6.10;94.60;;;;;;5075061;28;19985;-48
2023/03/01 10:43:21;;;;;;;;;;;6.20;98.50;;;;;;5075894;28;19916;-48
2023/03/01 10:45:47;;;;;;;;;;;6.30;96.00;;;;;;5075669;28;20024;-46
2023/03/01 10:48:17;;;;;;;;;;;6.40;93.20;;;;;;5074975;28;20427;-48
2023/03/01 10:50:43;;;;;;;;;;;6.40;95.00;;;;;;5075684;28;19961;-48
2023/03/01 10:53:28;;;;;;;;;;;6.50;94.40;;;;;;5075452;28;19909;-47
2023/03/01 10:56:06;;;;;;;;;;;6.50;92.50;;;;;;5074831;28;19908;-47
2023/03/01 10:58:32;;;;;;;;;;;6.50;86.90;;;;;;5063577;28;20375;-49
2023/03/01 11:01:05;;;;;;;;;;;6.60;94.70;;;;;;5076515;28;19924;-48
2023/03/01 11:03:35;;;;;;;;;;;6.70;91.90;;;;;;5081751;28;20355;-46
2023/03/01 11:06:12;;;;;;;;;;;6.70;90.40;;;;;;5086464;28;19920;-47
2023/03/01 11:08:40;;;;;;;;;;;6.70;90.30;;;;;;5088697;28;19912;-45
2023/03/01 11:11:12;;;;;;;;;;;6.80;95.00;;;;;;5095487;28;19908;-46
2023/03/01 11:13:58;;;;;;;;;;;6.90;91.40;;;;;;5086970;28;19915;-46
2023/03/01 11:16:25;;;;;;;;;;;6.90;87.80;;;;;;5082150;28;20419;-48
2023/03/01 11:18:57;;;;;;;;;;;6.90;91.10;;;;;;5075089;28;19908;-47
2023/03/01 11:21:24;;;;;;;;;;;6.90;88.20;;;;;;5075019;28;19917;-46
2023/03/01 11:23:50;;;;;;;;;;;7.00;91.40;;;;;;5074495;28;19909;-47
2023/03/01 11:26:16;;;;;;;;;;;7.00;91.20;;;;;;5074997;28;19915;-47
2023/03/01 11:28:42;;;;;;;;;;;7.10;90.00;;;;;;5071898;28;19957;-48
2023/03/01 11:31:11;;;;;;;;;;;7.20;92.50;;;;;;5073992;28;19995;-47
2023/03/01 11:33:46;;;;;;;;;;;7.30;92.20;;;;;;5074975;28;19912;-47
2023/03/01 11:36:16;;;;;;;;;;;7.40;91.70;;;;;;5073729;28;19917;-46
2023/03/01 11:38:42;;;;;;;;;;;7.50;90.00;;;;;;5074778;28;19909;-47
2023/03/01 11:41:11;;;;;;;;;;;7.60;88.90;;;;;;5074542;28;19924;-48
2023/03/01 11:43:46;;;;;;;;;;;7.60;86.80;;;;;;5074230;28;19920;-49
2023/03/01 11:46:24;;;;;;;;;;;7.70;93.20;;;;;;5074705;28;20431;-46
2023/03/01 11:48:58;;;;;;;;;;;7.80;87.80;;;;;;5074492;28;20355;-45
2023/03/01 11:51:36;;;;;;;;;;;7.70;84.30;;;;;;5060409;28;20358;-47
2023/03/01 11:54:09;;;;;;;;;;;7.80;87.90;;;;;;5074006;28;19908;-46
2023/03/01 11:56:45;;;;;;;;;;;7.90;86.00;;;;;;5062958;28;19913;-49
2023/03/01 11:59:16;;;;;;;;;;;8.00;87.10;;;;;;5053097;28;20003;-49
2023/03/01 12:02:01;;;;;;;;;;;8.10;87.40;;;;;;5054459;28;19948;-50
2023/03/01 12:04:41;;;;;;;;;;;8.20;99.20;;;;;;5053642;28;19987;-47
2023/03/01 12:07:09;;;;;;;;;;;8.10;92.10;;;;;;5057747;28;20015;-47
2023/03/01 12:09:58;;;;;;;;;;;8.20;99.90;;;;;;5070230;28;19908;-48
2023/03/01 12:12:30;;;;;;;;;;;8.20;98.80;;;;;;5037890;28;19913;-46
2023/03/01 12:14:58;;;;;;;;;;;8.10;82.50;;;;;;5059936;28;19920;-50
2023/03/01 12:17:23;;;;;;;;;;;8.20;81.20;;;;;;5054337;28;20243;-51
2023/03/01 12:20:10;;;;;;;;;;;8.20;80.50;;;;;;5059247;28;20019;-46
2023/03/01 12:22:47;;;;;;;;;;;8.30;82.80;;;;;;5052776;28;19917;-48
2023/03/01 12:25:21;;;;;;;;;;;8.50;88.40;;;;;;5058136;28;20003;-47
2023/03/01 12:28:16;;;;;;;;;;;8.50;78.10;;;;;;5056751;28;20446;-46
2023/03/01 12:30:53;;;;;;;;;;;8.60;80.50;;;;;;5051021;28;19913;-52
2023/03/01 12:33:35;;;;;;;;;;;8.70;77.80;;;;;;5055227;28;19909;-50
2023/03/01 12:36:19;;;;;;;;;;;8.70;81.60;;;;;;5056095;28;20371;-46
2023/03/01 12:39:03;;;;;;;;;;;8.80;76.80;;;;;;5055338;28;19908;-49
2023/03/01 12:41:42;;;;;;;;;;;8.70;74.20;;;;;;5066667;28;20360;-50
2023/03/01 12:44:26;;;;;;;;;;;8.90;80.70;;;;;;5058623;28;19923;-48
2023/03/01 12:47:09;;;;;;;;;;;9.10;81.40;;;;;;5051871;28;19962;-50
2023/03/01 12:49:40;;;;;;;;;;;9.20;80.00;;;;;;5061435;28;20364;-52
2023/03/01 12:52:11;;;;;;;;;;;9.20;76.80;;;;;;5054307;28;19919;-48
2023/03/01 12:54:37;;;;;;;;;;;9.20;78.10;;;;;;5062995;28;20007;-49
2023/03/01 12:57:08;;;;;;;;;;;9.30;75.40;;;;;;5053954;28;20332;-50
2023/03/01 12:59:50;;;;;;;;;;;9.40;75.80;;;;;;5059466;28;19990;-51
2023/03/01 13:02:16;;;;;;;;;;;9.40;76.10;;;;;;5051729;28;20412;-48
2023/03/01 13:05:05;;;;;;;;;;;9.40;74.70;;;;;;5077791;28;20003;-46
2023/03/01 13:07:41;;;;;;;;;;;9.30;76.10;;;;;;5052675;28;19916;-48
2023/03/01 13:10:30;;;;;;;;;;;9.30;72.90;;;;;;5053003;28;19912;-47
2023/03/01 13:12:56;;;;;;;;;;;9.50;77.70;;;;;;5053707;28;19988;-45
2023/03/01 13:15:21;;;;;;;;;;;9.50;75.10;;;;;;5053195;28;19998;-49
2023/03/01 13:17:47;;;;;;;;;;;9.50;76.00;;;;;;5053628;28;19909;-48
2023/03/01 13:20:14;;;;;;;;;;;9.60;77.00;;;;;;5053094;28;19915;-46
2023/03/01 13:22:39;;;;;;;;;;;9.70;82.40;;;;;;5052090;28;19917;-46
2023/03/01 13:25:13;;;;;;;;;;;9.60;72.80;;;;;;5052788;28;20368;-48
2023/03/01 13:27:39;;;;;;;;;;;9.70;75.40;;;;;;5052861;28;19909;-47
2023/03/01 13:30:24;;;;;;;;;;;9.70;73.60;;;;;;5051872;28;19955;-50
2023/03/01 13:32:50;;;;;;;;;;;9.80;82.10;;;;;;5052504;28;19909;-48
2023/03/01 13:35:16;;;;;;;;;;;10.00;77.40;;;;;;5051963;28;19915;-47
2023/03/01 13:37:42;;;;;;;;;;;10.30;76.00;;;;;;5051869;28;19956;-46
2023/03/01 13:40:28;;;;;;;;;;;10.50;72.40;;;;;;5052530;28;19948;-47
2023/03/01 13:42:54;;;;;;;;;;;10.50;70.40;;;;;;5020493;28;20364;-47
2023/03/01 13:45:39;;;;;;;;;;;10.70;70.60;;;;;;5052546;28;20003;-50
2023/03/01 13:48:16;;;;;;;;;;;10.90;71.80;;;;;;5052020;28;19909;-49
2023/03/01 13:50:50;;;;;;;;;;;11.00;71.80;;;;;;5064857;28;19947;-47
2023/03/01 13:53:17;;;;;;;;;;;10.90;68.40;;;;;;5056095;28;19995;-47
2023/03/01 13:55:45;;;;;;;;;;;11.00;69.20;;;;;;5068117;28;20374;-52
2023/03/01 13:58:25;;;;;;;;;;;11.20;69.70;;;;;;5076344;28;19921;-51
2023/03/01 14:01:04;;;;;;;;;;;11.30;69.10;;;;;;5077353;28;19978;-50
2023/03/01 14:03:30;;;;;;;;;;;11.40;67.70;;;;;;5077377;28;19915;-49
2023/03/01 14:06:01;;;;;;;;;;;11.70;64.90;;;;;;5076775;28;19995;-48
2023/03/01 14:08:27;;;;;;;;;;;11.80;63.90;;;;;;5076818;28;19987;-48
2023/03/01 14:11:11;;;;;;;;;;;11.90;64.10;;;;;;5076376;28;19954;-48
2023/03/01 14:13:46;;;;;;;;;;;12.10;63.70;;;;;;5076933;28;20358;-48
2023/03/01 14:16:23;;;;;;;;;;;12.30;68.00;;;;;;5076837;28;20251;-49
2023/03/01 14:18:58;;;;;;;;;;;12.30;63.30;;;;;;5076373;28;19915;-50
2023/03/01 14:21:25;;;;;;;;;;;12.30;62.20;;;;;;5076698;28;19924;-46
2023/03/01 14:23:51;;;;;;;;;;;12.30;61.50;;;;;;5076519;28;20295;-50
2023/03/01 14:26:20;;;;;;;;;;;12.30;62.50;;;;;;5075414;28;20007;-47
2023/03/01 14:28:45;;;;;;;;;;;12.20;61.70;;;;;;5076360;28;19913;-50
2023/03/01 14:31:29;;;;;;;;;;;12.40;62.40;;;;;;5076579;28;19912;-48